Time;durP1;ratioP1;P1;durP2;ratioP2;P2;SDS_P1;SDS_P2;PMS_P1;PMS_P2;Temp;Humidity;BMP_temperature;BMP_pressure;BME280_temperature;BME280_humidity;BME280_pressure;Samples;Min_cycle;Max_cycle;Signal;HPM_P1;HPM_P2
2022/11/25 00:01:33;;;;;;;86.30;26.50;;;;;;;0.28;95.77;99907.26;105882;1285;68852;-78
2022/11/25 00:04:21;;;;;;;93.30;27.70;;;;;;;0.30;95.71;99909.95;105860;1290;72394;-77
2022/11/25 00:07:09;;;;;;;79.70;26.10;;;;;;;0.36;95.55;99908.73;105858;1294;57269;-77
2022/11/25 00:09:56;;;;;;;64.00;21.80;;;;;;;0.36;95.00;99909.05;105765;1292;61724;-77
2022/11/25 00:12:44;;;;;;;84.50;25.70;;;;;;;0.36;95.10;99910.45;105883;1292;73905;-77
2022/11/25 00:15:32;;;;;;;64.60;20.30;;;;;;;0.37;95.14;99913.05;105882;1292;69399;-77
2022/11/25 00:18:20;;;;;;;90.60;28.60;;;;;;;0.38;95.33;99917.00;105869;1292;71678;-78
2022/11/25 00:21:11;;;;;;;93.30;29.30;;;;;;;0.40;95.12;99915.04;105858;1292;59625;-78
2022/11/25 00:24:05;;;;;;;83.10;27.40;;;;;;;0.43;95.20;99916.10;105766;1292;60702;-77
2022/11/25 00:26:53;;;;;;;90.70;27.70;;;;;;;0.49;95.40;99916.95;105757;1284;73829;-78
2022/11/25 00:29:41;;;;;;;84.20;26.50;;;;;;;0.53;95.08;99918.89;105753;1295;67096;-79
2022/11/25 00:32:29;;;;;;;74.40;23.70;;;;;;;0.56;94.90;99917.56;105704;1289;73753;-77
2022/11/25 00:35:18;;;;;;;87.20;27.50;;;;;;;0.57;94.88;99916.46;105785;1288;57994;-78
2022/11/25 00:38:06;;;;;;;87.50;27.30;;;;;;;0.60;95.01;99915.64;105738;1291;58924;-79
2022/11/25 00:47:10;;;;;;;79.20;25.80;;;;;;;0.52;94.46;99924.01;105875;1287;73625;-78
2022/11/25 00:49:57;;;;;;;91.60;29.20;;;;;;;0.51;94.54;99928.92;105744;1296;59781;-78
2022/11/25 00:52:45;;;;;;;83.60;26.30;;;;;;;0.53;94.58;99930.58;105903;1292;58634;-78
2022/11/25 00:56:11;;;;;;;86.30;27.40;;;;;;;0.53;94.37;99931.98;105867;1292;74153;-77
2022/11/25 00:58:42;;;;;;;82.30;26.00;;;;;;;0.54;94.25;99935.27;105891;1292;67731;-81
2022/11/25 01:01:30;;;;;;;86.20;27.70;;;;;;;0.57;94.45;99937.41;105724;1285;72964;-78
2022/11/25 01:04:18;;;;;;;83.40;26.40;;;;;;;0.60;94.73;99938.17;105897;1288;57230;-78
2022/11/25 01:07:06;;;;;;;75.00;24.70;;;;;;;0.61;94.67;99939.35;105616;1297;59196;-77
2022/11/25 01:09:54;;;;;;;67.40;22.50;;;;;;;0.61;94.31;99943.20;105763;1295;74414;-78
2022/11/25 01:12:46;;;;;;;80.00;25.40;;;;;;;0.59;94.43;99945.91;105740;1288;68303;-77
2022/11/25 01:15:36;;;;;;;80.40;26.50;;;;;;;0.57;94.19;99948.61;105873;1291;72552;-78
2022/11/25 01:18:24;;;;;;;78.80;25.10;;;;;;;0.50;93.81;99945.02;105761;1295;59818;-78
2022/11/25 01:21:20;;;;;;;89.10;26.10;;;;;;;0.44;93.92;99943.84;105906;1292;61405;-78
2022/11/25 01:24:11;;;;;;;83.90;27.60;;;;;;;0.40;94.44;99944.70;105775;1293;70524;-78
2022/11/25 01:26:59;;;;;;;84.00;27.30;;;;;;;0.42;94.83;99945.31;105771;1294;68711;-78
2022/11/25 01:29:47;;;;;;;76.80;25.20;;;;;;;0.47;94.86;99946.69;105888;1295;72193;-78
2022/11/25 01:32:36;;;;;;;69.20;23.60;;;;;;;0.48;94.71;99946.80;105809;1286;57068;-78
2022/11/25 01:35:26;;;;;;;60.50;20.10;;;;;;;0.47;94.56;99945.83;105897;1288;58831;-77
2022/11/25 01:38:13;;;;;;;67.80;20.80;;;;;;;0.46;94.61;99948.31;105871;1292;74103;-77
2022/11/25 01:41:02;;;;;;;76.30;23.70;;;;;;;0.43;94.44;99945.10;105864;1292;68902;-78
2022/11/25 01:44:21;;;;;;;84.30;25.90;;;;;;;0.40;94.37;99945.73;105710;1284;71174;-78
2022/11/25 01:47:22;;;;;;;88.70;27.70;;;;;;;0.40;94.70;99950.98;105889;1289;58540;-78
2022/11/25 01:50:11;;;;;;;81.90;26.10;;;;;;;0.43;94.97;99949.30;105772;1292;60056;-79
2022/11/25 01:53:02;;;;;;;91.60;28.00;;;;;;;0.46;94.83;99951.45;105881;1292;73163;-79
2022/11/25 01:56:00;;;;;;;85.70;27.40;;;;;;;0.48;94.85;99954.48;105798;1290;67711;-77
2022/11/25 01:58:48;;;;;;;72.50;22.40;;;;;;;0.49;94.83;99955.15;105769;1292;72388;-78
2022/11/25 02:01:35;;;;;;;73.00;23.10;;;;;;;0.49;94.98;99953.06;105755;1301;58240;-77
2022/11/25 02:04:31;;;;;;;91.40;27.20;;;;;;;0.48;94.75;99956.41;105716;1292;61381;-78
2022/11/25 02:07:30;;;;;;;95.70;28.00;;;;;;;0.47;94.96;99959.27;105725;1292;73277;-78
2022/11/25 02:10:25;;;;;;;94.70;27.40;;;;;;;0.49;95.22;99962.50;105895;1292;66711;-78
2022/11/25 02:13:14;;;;;;;86.20;27.70;;;;;;;0.53;95.27;99960.08;105717;1295;71395;-77
2022/11/25 02:16:02;;;;;;;88.50;26.30;;;;;;;0.58;95.12;99961.64;105869;1290;58579;-77
2022/11/25 02:18:50;;;;;;;86.40;28.20;;;;;;;0.62;95.16;99962.02;105770;1294;58858;-77
2022/11/25 02:21:53;;;;;;;85.80;26.50;;;;;;;0.64;94.95;99965.42;105897;1295;71500;-77
2022/11/25 02:24:48;;;;;;;68.30;21.70;;;;;;;0.65;94.92;99966.08;105718;1294;68731;-79
2022/11/25 02:27:36;;;;;;;86.10;26.40;;;;;;;0.63;94.62;99960.25;105702;1293;73741;-78
2022/11/25 02:30:24;;;;;;;71.90;21.40;;;;;;;0.60;94.71;99962.29;105713;1298;58376;-78
2022/11/25 02:33:14;;;;;;;91.60;26.30;;;;;;;0.57;94.83;99968.85;105733;1294;60078;-78
2022/11/25 02:36:14;;;;;;;90.70;25.50;;;;;;;0.55;94.95;99969.77;105720;1295;74010;-78
2022/11/25 02:39:03;;;;;;;79.50;23.10;;;;;;;0.56;94.90;99971.33;105737;1289;67773;-78
2022/11/25 02:41:56;;;;;;;102.50;27.60;;;;;;;0.54;94.97;99973.86;105762;1292;72647;-78
2022/11/25 02:44:44;;;;;;;106.90;32.30;;;;;;;0.55;95.20;99981.16;105755;1286;59620;-78
2022/11/25 02:47:31;;;;;;;105.10;27.50;;;;;;;0.54;95.29;99981.53;105879;1291;61122;-78
2022/11/25 02:50:19;;;;;;;95.30;26.90;;;;;;;0.54;95.29;99984.33;105739;1292;71805;-78
2022/11/25 02:53:07;;;;;;;99.90;24.90;;;;;;;0.52;95.27;99987.89;105886;1292;67675;-79
2022/11/25 02:55:56;;;;;;;115.60;31.80;;;;;;;0.44;95.35;99987.30;105870;1295;72410;-78
2022/11/25 02:58:44;;;;;;;117.20;30.50;;;;;;;0.41;95.67;99986.02;105884;1300;57974;-78
2022/11/25 03:01:32;;;;;;;112.10;29.60;;;;;;;0.38;95.58;99987.35;105744;1292;61452;-78
2022/11/25 03:04:19;;;;;;;105.50;29.00;;;;;;;0.34;95.74;99988.02;105892;1298;72891;-78
2022/11/25 03:07:07;;;;;;;110.50;32.20;;;;;;;0.30;96.16;99985.72;105891;1293;67960;-79
2022/11/25 03:09:54;;;;;;;117.50;29.90;;;;;;;0.29;96.40;99982.09;105745;1296;72132;-78
2022/11/25 03:12:42;;;;;;;105.30;31.70;;;;;;;0.30;96.64;99982.04;105875;1286;60110;-78
2022/11/25 03:15:30;;;;;;;114.70;32.90;;;;;;;0.36;96.65;99982.55;105737;1292;60213;-78
2022/11/25 03:18:17;;;;;;;116.60;32.70;;;;;;;0.40;96.67;99986.59;105870;1298;73040;-77
2022/11/25 03:21:06;;;;;;;108.40;28.30;;;;;;;0.45;96.92;99988.83;105767;1287;67778;-79
2022/11/25 03:23:54;;;;;;;118.40;31.30;;;;;;;0.47;96.43;99988.91;105766;1284;72548;-80
2022/11/25 03:26:42;;;;;;;99.40;29.40;;;;;;;0.48;96.51;99986.29;105866;1298;58174;-79
2022/11/25 03:29:29;;;;;;;94.60;27.90;;;;;;;0.46;96.06;99988.46;105767;1295;59156;-79
2022/11/25 03:32:17;;;;;;;112.80;30.60;;;;;;;0.45;96.41;99993.56;105706;1293;71717;-78
2022/11/25 03:35:06;;;;;;;119.60;32.20;;;;;;;0.46;96.61;99997.20;105782;1295;67578;-78
2022/11/25 03:37:54;;;;;;;119.50;33.40;;;;;;;0.48;96.61;99999.36;105617;1298;73563;-78
2022/11/25 03:40:42;;;;;;;113.20;30.40;;;;;;;0.51;96.74;100000.83;105689;1301;57245;-79
2022/11/25 03:43:30;;;;;;;127.10;33.50;;;;;;;0.56;96.73;100007.48;105615;1294;59100;-78
2022/11/25 03:46:17;;;;;;;105.80;29.50;;;;;;;0.61;96.91;100008.50;105703;1295;72643;-77
2022/11/25 03:49:06;;;;;;;127.20;30.30;;;;;;;0.63;96.57;100008.78;105463;1295;66418;-78
2022/11/25 03:51:54;;;;;;;106.50;29.30;;;;;;;0.67;96.57;100012.13;105671;1295;72572;-78
2022/11/25 03:54:42;;;;;;;116.40;31.40;;;;;;;0.68;96.45;100009.48;105662;1295;58047;-79
2022/11/25 03:57:41;;;;;;;103.60;28.80;;;;;;;0.69;96.36;100013.09;105739;1297;59230;-78
2022/11/25 04:00:29;;;;;;;102.10;27.70;;;;;;;0.70;96.42;100013.39;105668;1293;74088;-79
2022/11/25 04:03:19;;;;;;;99.80;26.10;;;;;;;0.69;96.24;100013.63;105717;1301;67659;-78
2022/11/25 04:06:08;;;;;;;106.10;27.70;;;;;;;0.69;96.48;100013.97;105696;1292;71149;-77
2022/11/25 04:08:58;;;;;;;113.60;31.40;;;;;;;0.69;96.23;100013.62;105668;1301;59637;-78
2022/11/25 04:15:01;;;;;;;108.30;28.60;;;;;;;0.66;96.13;100014.05;105681;1295;73007;-78
2022/11/25 04:17:52;;;;;;;105.70;29.70;;;;;;;0.66;96.30;100010.56;105659;1295;68980;-78
2022/11/25 04:20:40;;;;;;;97.10;26.20;;;;;;;0.67;96.30;100011.23;105676;1301;73503;-78
2022/11/25 04:23:27;;;;;;;79.70;24.10;;;;;;;0.68;96.30;100013.66;105680;1295;58245;-78
2022/11/25 04:26:22;;;;;;;96.30;27.50;;;;;;;0.67;95.93;100015.09;105686;1298;61374;-78
2022/11/25 04:29:10;;;;;;;87.70;22.70;;;;;;;0.69;96.53;100023.75;105692;1298;70422;-78
2022/11/25 04:31:58;;;;;;;79.20;24.00;;;;;;;0.67;96.32;100026.59;105692;1287;66359;-78
2022/11/25 04:34:46;;;;;;;76.20;20.10;;;;;;;0.64;96.17;100031.94;105667;1294;72440;-78
2022/11/25 04:37:33;;;;;;;92.10;24.30;;;;;;;0.62;96.08;100034.14;105788;1302;58487;-78
2022/11/25 04:40:21;;;;;;;98.00;25.90;;;;;;;0.57;95.84;100037.30;105745;1295;60554;-77
2022/11/25 04:43:15;;;;;;;81.00;23.20;;;;;;;0.50;95.90;100036.31;105862;1291;72861;-78
2022/11/25 04:46:18;;;;;;;87.80;26.50;;;;;;;0.48;96.05;100038.30;105708;1291;67805;-77
2022/11/25 04:49:09;;;;;;;93.60;25.10;;;;;;;0.50;96.39;100042.79;105678;1298;72375;-77
2022/11/25 04:51:58;;;;;;;100.00;26.30;;;;;;;0.52;96.53;100040.63;105754;1290;57505;-79
2022/11/25 04:54:45;;;;;;;92.40;26.70;;;;;;;0.53;96.41;100038.67;105771;1295;61793;-78
2022/11/25 04:57:33;;;;;;;90.70;25.90;;;;;;;0.56;96.65;100035.25;105883;1295;74215;-78
2022/11/25 05:00:22;;;;;;;80.30;23.70;;;;;;;0.60;96.70;100035.09;105808;1295;67669;-78
2022/11/25 05:03:10;;;;;;;79.40;23.70;;;;;;;0.62;96.76;100033.60;105894;1290;72678;-79
2022/11/25 05:05:58;;;;;;;77.00;22.60;;;;;;;0.66;96.74;100032.92;105701;1301;58000;-78
2022/11/25 05:08:50;;;;;;;67.20;22.00;;;;;;;0.66;96.50;100037.82;105688;1294;58883;-78
2022/11/25 05:11:38;;;;;;;77.50;23.30;;;;;;;0.66;95.99;100039.92;105717;1292;72960;-78
2022/11/25 05:14:25;;;;;;;83.10;24.20;;;;;;;0.68;96.07;100044.92;104304;1295;1002992;-79
2022/11/25 05:17:17;;;;;;;70.60;21.30;;;;;;;0.69;95.84;100044.37;105851;1298;73492;-78
2022/11/25 05:20:05;;;;;;;73.40;22.40;;;;;;;0.69;95.79;100048.35;105768;1294;58695;-77
2022/11/25 05:22:53;;;;;;;59.80;19.10;;;;;;;0.71;95.58;100055.11;105613;1295;58830;-78
2022/11/25 05:25:41;;;;;;;67.80;19.80;;;;;;;0.69;95.53;100057.29;105753;1296;73026;-80
2022/11/25 05:28:55;;;;;;;69.80;21.40;;;;;;;0.69;95.60;100056.08;105863;1290;67992;-78
2022/11/25 05:31:43;;;;;;;59.50;17.00;;;;;;;0.66;95.43;100058.77;105836;1290;73982;-78
2022/11/25 05:34:32;;;;;;;72.50;21.30;;;;;;;0.62;95.28;100062.23;105737;1301;58551;-78
2022/11/25 05:37:20;;;;;;;79.00;24.60;;;;;;;0.56;95.21;100070.50;105768;1295;60057;-79
2022/11/25 05:40:15;;;;;;;74.80;21.90;;;;;;;0.51;95.42;100075.21;105792;1295;71682;-80
2022/11/25 05:43:09;;;;;;;78.70;23.70;;;;;;;0.42;95.60;100081.48;105715;1284;68887;-78
2022/11/25 05:45:58;;;;;;;83.40;24.00;;;;;;;0.35;95.81;100081.70;105693;1294;72383;-80
2022/11/25 05:48:46;;;;;;;81.00;23.60;;;;;;;0.29;96.23;100083.85;105505;1294;57243;-78
2022/11/25 05:51:34;;;;;;;68.90;19.90;;;;;;;0.25;96.55;100081.19;105739;1290;60463;-77
2022/11/25 05:54:22;;;;;;;62.00;19.00;;;;;;;0.21;96.62;100074.52;105820;1292;72759;-78
2022/11/25 05:57:10;;;;;;;70.50;20.40;;;;;;;0.19;96.84;100069.20;105853;1290;66831;-78
2022/11/25 06:00:14;;;;;;;73.50;21.70;;;;;;;0.19;97.06;100072.50;105762;1287;71421;-77
2022/11/25 06:03:04;;;;;;;57.00;16.10;;;;;;;0.18;97.17;100074.28;105742;1296;59604;-78
2022/11/25 06:05:54;;;;;;;66.30;17.80;;;;;;;0.14;96.99;100076.67;104271;1295;1014858;-78
2022/11/25 06:08:43;;;;;;;68.20;19.80;;;;;;;0.10;97.30;100079.79;105747;1291;72757;-78
2022/11/25 06:11:31;;;;;;;65.20;19.30;;;;;;;0.06;97.55;100080.45;105742;1290;67655;-78
2022/11/25 06:14:18;;;;;;;64.10;18.40;;;;;;;0.07;97.68;100085.63;105737;1288;72581;-78
2022/11/25 06:17:06;;;;;;;56.00;16.30;;;;;;;0.08;97.72;100084.74;105717;1301;57230;-78
2022/11/25 06:19:59;;;;;;;63.80;18.10;;;;;;;0.04;97.60;100089.42;105765;1294;61238;-78
2022/11/25 06:22:47;;;;;;;74.80;20.60;;;;;;;0.04;97.84;100090.82;105752;1297;72863;-78
2022/11/25 06:25:39;;;;;;;64.70;20.20;;;;;;;0.04;97.67;100092.02;105749;1290;67630;-78
2022/11/25 06:28:27;;;;;;;68.20;19.60;;;;;;;0.04;97.97;100090.64;105497;1298;73438;-78
2022/11/25 06:31:22;;;;;;;69.40;20.80;;;;;;;0.04;97.82;100091.66;105845;1295;57795;-79
2022/11/25 06:34:22;;;;;;;69.40;20.60;;;;;;;0.09;98.10;100088.20;105696;1290;58626;-78
2022/11/25 06:37:10;;;;;;;65.00;20.30;;;;;;;0.15;98.06;100083.98;105635;1293;72788;-78
2022/11/25 06:39:57;;;;;;;59.20;19.40;;;;;;;0.21;98.11;100081.85;105718;1293;68304;-78
2022/11/25 06:42:45;;;;;;;59.20;18.60;;;;;;;0.23;97.57;100088.23;105625;1301;71329;-77
2022/11/25 06:45:33;;;;;;;66.90;17.90;;;;;;;0.24;97.44;100086.65;105556;1298;58322;-76
2022/11/25 06:48:20;;;;;;;68.90;20.00;;;;;;;0.25;97.52;100082.61;104862;1295;1002230;-78
2022/11/25 06:51:11;;;;;;;71.10;20.80;;;;;;;0.27;97.55;100082.17;105659;1295;73619;-79
2022/11/25 06:53:58;;;;;;;75.50;22.50;;;;;;;0.29;97.44;100084.17;105572;1298;68892;-78
2022/11/25 06:56:52;;;;;;;75.90;21.00;;;;;;;0.31;97.38;100086.22;105631;1294;72410;-79
2022/11/25 06:59:40;;;;;;;70.10;20.30;;;;;;;0.33;97.43;100089.96;105687;1295;57567;-77
2022/11/25 07:02:28;;;;;;;71.70;20.60;;;;;;;0.37;97.45;100090.73;105724;1295;60350;-78
2022/11/25 07:05:19;;;;;;;67.20;20.70;;;;;;;0.34;97.13;100091.69;105549;1295;73841;-78
2022/11/25 07:08:06;;;;;;;69.70;17.00;;;;;;;0.34;97.50;100088.73;104971;1294;1002476;-78
2022/11/25 07:10:54;;;;;;;56.10;16.20;;;;;;;0.38;97.80;100089.84;105705;1293;71368;-79
2022/11/25 07:13:43;;;;;;;69.10;20.10;;;;;;;0.39;97.54;100089.80;105682;1291;57518;-77
2022/11/25 07:16:31;;;;;;;79.40;21.40;;;;;;;0.38;97.25;100088.93;105712;1293;60156;-79
2022/11/25 07:19:19;;;;;;;72.40;20.90;;;;;;;0.41;97.31;100097.21;105694;1294;72955;-78
2022/11/25 07:22:07;;;;;;;63.80;19.50;;;;;;;0.46;97.15;100097.58;105722;1294;68839;-79
2022/11/25 07:24:55;;;;;;;72.70;22.30;;;;;;;0.50;97.02;100100.38;105691;1295;73707;-79
2022/11/25 07:27:43;;;;;;;72.40;21.10;;;;;;;0.56;96.99;100095.81;105663;1295;57252;-79
2022/11/25 07:30:31;;;;;;;72.30;22.60;;;;;;;0.61;96.74;100098.96;105692;1288;59621;-78
2022/11/25 07:33:38;;;;;;;72.70;22.10;;;;;;;0.65;96.59;100090.79;104968;1295;1002343;-79
2022/11/25 07:36:28;;;;;;;57.40;17.40;;;;;;;0.67;96.16;100096.80;105640;1295;67636;-78
2022/11/25 07:39:20;;;;;;;82.70;26.30;;;;;;;0.73;97.45;100098.52;105646;1292;72576;-77
2022/11/25 07:42:08;;;;;;;76.80;23.20;;;;;;;0.97;99.30;100102.01;105853;1292;58487;-79
2022/11/25 07:44:56;;;;;;;79.70;23.20;;;;;;;1.09;96.95;100102.09;105662;1294;60974;-79
2022/11/25 07:48:05;;;;;;;77.30;22.00;;;;;;;1.09;95.51;100104.54;105743;1292;72750;-77
2022/11/25 07:50:55;;;;;;;70.10;20.70;;;;;;;1.09;95.07;100105.59;105840;1291;68863;-78
2022/11/25 07:53:43;;;;;;;64.20;19.70;;;;;;;1.09;94.77;100105.08;105835;1284;72327;-78
2022/11/25 07:56:34;;;;;;;60.60;17.60;;;;;;;1.06;94.56;100105.54;105842;1292;57180;-79
2022/11/25 07:59:23;;;;;;;57.80;18.30;;;;;;;1.00;94.32;100108.35;105737;1295;60324;-79
2022/11/25 08:02:11;;;;;;;65.50;17.90;;;;;;;0.95;94.40;100108.90;105096;1294;1002091;-78
2022/11/25 08:04:59;;;;;;;64.40;21.40;;;;;;;0.94;94.90;100109.11;105737;1291;67658;-79
2022/11/25 08:07:46;;;;;;;68.20;19.50;;;;;;;0.94;94.82;100108.23;105825;1292;73716;-78
2022/11/25 08:10:40;;;;;;;76.10;21.00;;;;;;;0.93;94.82;100105.33;105828;1287;58504;-78
2022/11/25 08:13:27;;;;;;;70.20;20.60;;;;;;;0.94;94.93;100106.31;105844;1291;61391;-77
2022/11/25 08:16:19;;;;;;;75.00;21.30;;;;;;;0.96;94.84;100104.83;105849;1292;74179;-78
2022/11/25 08:19:12;;;;;;;67.70;19.00;;;;;;;0.98;94.86;100107.05;105883;1293;67611;-77
2022/11/25 08:22:00;;;;;;;59.40;17.70;;;;;;;0.99;94.74;100108.23;105725;1295;73502;-77
2022/11/25 08:24:47;;;;;;;51.90;16.40;;;;;;;0.97;94.81;100105.14;105846;1292;57238;-78
2022/11/25 08:27:35;;;;;;;61.90;17.10;;;;;;;0.98;94.83;100107.23;105850;1292;58630;-79
2022/11/25 08:30:24;;;;;;;65.90;20.50;;;;;;;0.95;94.61;100111.67;105839;1292;73306;-77
2022/11/25 08:33:13;;;;;;;69.40;18.10;;;;;;;0.97;94.74;100114.95;105855;1295;67460;-79
2022/11/25 08:36:01;;;;;;;68.20;20.40;;;;;;;0.98;94.85;100115.61;105829;1290;73697;-79
2022/11/25 08:38:52;;;;;;;65.60;19.50;;;;;;;0.98;94.64;100117.69;105815;1292;58864;-77
2022/11/25 08:41:40;;;;;;;53.10;17.80;;;;;;;1.00;94.87;100113.78;105837;1292;60074;-79
2022/11/25 08:44:29;;;;;;;53.70;18.10;;;;;;;1.04;94.79;100111.38;105853;1292;72921;-79
2022/11/25 08:47:16;;;;;;;60.60;18.30;;;;;;;1.06;94.75;100109.38;105874;1291;66300;-78
2022/11/25 08:50:09;;;;;;;52.50;14.90;;;;;;;1.09;94.57;100112.06;105843;1291;73639;-78
2022/11/25 08:52:58;;;;;;;51.00;15.90;;;;;;;1.09;94.45;100113.97;104982;1298;1002305;-79
2022/11/25 08:55:46;;;;;;;65.90;20.30;;;;;;;1.09;94.47;100115.38;105849;1292;60104;-78
2022/11/25 08:58:35;;;;;;;75.80;22.10;;;;;;;1.09;94.47;100124.62;105873;1287;72753;-78
2022/11/25 09:01:24;;;;;;;68.50;21.20;;;;;;;1.09;94.17;100123.77;105853;1292;67856;-78
2022/11/25 09:04:11;;;;;;;63.20;20.30;;;;;;;1.12;94.46;100131.33;105687;1294;72534;-78
2022/11/25 09:06:59;;;;;;;66.10;19.90;;;;;;;1.16;94.43;100131.38;105722;1289;57334;-77
2022/11/25 09:09:48;;;;;;;86.80;33.10;;;;;;;1.19;94.40;100135.44;105771;1295;61586;-78
2022/11/25 09:12:35;;;;;;;60.30;19.90;;;;;;;1.22;94.15;100139.70;105835;1291;74104;-78
2022/11/25 09:15:23;;;;;;;57.80;18.70;;;;;;;1.23;93.81;100137.55;105880;1288;66221;-78
2022/11/25 09:18:11;;;;;;;53.10;16.20;;;;;;;1.22;93.83;100139.73;105861;1291;72641;-78
2022/11/25 09:20:59;;;;;;;55.00;18.20;;;;;;;1.22;93.93;100138.48;105736;1292;57296;-79
2022/11/25 09:23:50;;;;;;;55.70;18.50;;;;;;;1.22;94.00;100140.23;105731;1295;60819;-79
2022/11/25 09:26:39;;;;;;;55.60;18.00;;;;;;;1.21;94.00;100140.25;105830;1292;73125;-78
2022/11/25 09:29:29;;;;;;;66.70;19.90;;;;;;;1.23;94.12;100141.75;105840;1292;68866;-78
2022/11/25 09:32:16;;;;;;;58.10;18.70;;;;;;;1.26;94.02;100146.36;105842;1292;72437;-78
2022/11/25 09:35:05;;;;;;;58.80;18.90;;;;;;;1.26;93.77;100147.96;105859;1293;58667;-78
2022/11/25 09:37:52;;;;;;;69.10;19.00;;;;;;;1.25;93.64;100152.52;105849;1292;59268;-77
2022/11/25 09:41:14;;;;;;;64.10;20.40;;;;;;;1.26;93.69;100154.08;105853;1284;72706;-78
2022/11/25 09:47:49;;;;;;;60.60;19.50;;;;;;;1.33;93.95;100148.55;105718;1300;71126;-78
2022/11/25 09:51:01;;;;;;;62.20;19.70;;;;;;;1.37;93.94;100145.27;105743;1291;57244;-78
2022/11/25 09:53:55;;;;;;;62.80;18.70;;;;;;;1.39;93.67;100146.95;105783;1292;59017;-78
2022/11/25 09:57:14;;;;;;;68.50;21.50;;;;;;;1.38;93.64;100147.84;105729;1294;72825;-79
2022/11/25 10:00:11;;;;;;;72.20;20.60;;;;;;;1.36;93.38;100149.48;105763;1287;66346;-79
2022/11/25 10:03:34;;;;;;;74.50;21.60;;;;;;;1.35;93.45;100148.81;105816;1292;72424;-78
2022/11/25 10:06:35;;;;;;;71.80;22.90;;;;;;;1.34;93.50;100154.63;105846;1292;57809;-79
2022/11/25 10:09:32;;;;;;;70.60;23.20;;;;;;;1.36;93.56;100154.87;105856;1292;61380;-78
2022/11/25 10:12:29;;;;;;;62.70;22.70;;;;;;;1.38;93.24;100156.59;105726;1292;72342;-78
2022/11/25 10:15:26;;;;;;;64.40;22.30;;;;;;;1.42;93.51;100153.30;105749;1292;66541;-79
2022/11/25 10:18:44;;;;;;;66.00;21.70;;;;;;;1.41;93.06;100154.01;105003;1295;1002319;-78
2022/11/25 10:21:31;;;;;;;61.80;21.60;;;;;;;1.41;93.41;100156.83;105782;1295;57277;-78
2022/11/25 10:24:20;;;;;;;72.20;23.70;;;;;;;1.41;93.30;100157.33;105847;1292;60381;-79
2022/11/25 10:27:21;;;;;;;76.40;23.90;;;;;;;1.42;93.43;100156.77;105700;1294;74317;-77
2022/11/25 10:30:20;;;;;;;72.30;24.30;;;;;;;1.41;92.83;100163.09;105725;1290;66449;-80
2022/11/25 10:33:36;;;;;;;78.50;24.30;;;;;;;1.39;93.22;100162.66;105855;1285;73196;-78
2022/11/25 10:36:35;;;;;;;69.70;24.30;;;;;;;1.41;93.21;100164.52;105835;1284;57329;-79
2022/11/25 10:39:28;;;;;;;66.00;22.20;;;;;;;1.42;92.92;100165.52;105730;1295;58626;-78
2022/11/25 10:42:23;;;;;;;70.50;21.70;;;;;;;1.35;92.59;100163.83;105723;1289;72976;-78
2022/11/25 10:45:11;;;;;;;63.50;20.60;;;;;;;1.38;93.36;100163.24;105695;1290;66228;-78
2022/11/25 10:48:40;;;;;;;54.50;17.90;;;;;;;1.41;93.31;100163.98;105706;1288;72433;-78
2022/11/25 10:51:46;;;;;;;50.40;17.10;;;;;;;1.40;92.98;100161.95;105843;1292;57195;-78
2022/11/25 10:54:33;;;;;;;63.60;21.70;;;;;;;1.40;92.75;100162.63;105723;1292;61137;-78
2022/11/25 10:57:27;;;;;;;63.10;20.90;;;;;;;1.42;92.63;100165.18;105836;1286;74079;-79
2022/11/25 11:00:37;;;;;;;58.90;19.40;;;;;;;1.45;92.70;100168.37;105734;1294;65333;-78
2022/11/25 11:03:25;;;;;;;54.30;18.70;;;;;;;1.49;92.46;100169.62;105777;1291;72584;-80
2022/11/25 11:06:35;;;;;;;56.30;19.80;;;;;;;1.54;92.67;100168.73;105723;1295;57211;-79
2022/11/25 11:09:37;;;;;;;53.30;17.80;;;;;;;1.58;92.39;100171.02;104991;1292;1002483;-78
2022/11/25 11:12:28;;;;;;;55.90;17.90;;;;;;;1.58;92.31;100169.11;105706;1288;73074;-79
2022/11/25 11:15:29;;;;;;;60.80;22.60;;;;;;;1.58;92.64;100164.39;105854;1291;67645;-80
2022/11/25 11:18:28;;;;;;;65.30;21.80;;;;;;;1.62;92.58;100163.00;105854;1292;72394;-79
2022/11/25 11:21:40;;;;;;;62.50;21.20;;;;;;;1.65;92.62;100164.79;105850;1292;58867;-77
2022/11/25 11:24:41;;;;;;;71.10;23.40;;;;;;;1.70;92.41;100167.08;105892;1287;61480;-77
2022/11/25 11:27:29;;;;;;;70.40;25.60;;;;;;;1.75;92.27;100165.14;105751;1292;74384;-80
2022/11/25 11:30:22;;;;;;;70.50;23.40;;;;;;;1.79;92.21;100164.42;105758;1295;67523;-77
2022/11/25 11:33:35;;;;;;;61.50;20.20;;;;;;;1.79;91.69;100161.11;105859;1292;71354;-78
2022/11/25 11:36:32;;;;;;;60.90;21.70;;;;;;;1.76;91.47;100164.36;105725;1293;57210;-78
2022/11/25 11:40:06;;;;;;;63.50;21.10;;;;;;;1.73;91.48;100166.23;105885;1291;60127;-78
2022/11/25 11:43:32;;;;;;;60.30;21.00;;;;;;;1.65;91.88;100169.52;105708;1288;73849;-77
2022/11/25 11:46:29;;;;;;;68.50;22.70;;;;;;;1.64;92.01;100165.88;105754;1288;68668;-79
2022/11/25 11:50:00;;;;;;;74.10;23.90;;;;;;;1.60;92.08;100166.23;105697;1292;71636;-78
2022/11/25 11:53:19;;;;;;;68.20;21.70;;;;;;;1.65;92.41;100169.70;105826;1300;57243;-78
2022/11/25 11:56:31;;;;;;;62.70;21.30;;;;;;;1.69;92.40;100175.50;105860;1285;60366;-79
2022/11/25 11:59:54;;;;;;;59.70;21.00;;;;;;;1.71;91.89;100176.98;105858;1292;73061;-77
2022/11/25 12:03:11;;;;;;;58.60;20.30;;;;;;;1.67;92.04;100180.80;105855;1292;67816;-78
2022/11/25 12:06:03;;;;;;;56.30;20.40;;;;;;;1.65;92.21;100183.52;105859;1292;72655;-78
2022/11/25 12:09:03;;;;;;;59.00;20.50;;;;;;;1.61;92.09;100188.23;105837;1292;59627;-78
2022/11/25 12:11:59;;;;;;;64.80;21.40;;;;;;;1.57;92.26;100190.48;105855;1292;61469;-79
2022/11/25 12:14:52;;;;;;;68.20;22.60;;;;;;;1.56;92.51;100194.05;105675;1298;73350;-78
2022/11/25 12:17:47;;;;;;;73.40;24.00;;;;;;;1.58;92.70;100194.30;105714;1293;68679;-78
2022/11/25 12:21:04;;;;;;;72.80;23.50;;;;;;;1.60;92.64;100192.80;105713;1295;72800;-78
2022/11/25 12:24:30;;;;;;;61.40;21.60;;;;;;;1.65;92.33;100195.08;105744;1300;57273;-77
2022/11/25 12:27:30;;;;;;;76.30;25.00;;;;;;;1.68;92.34;100195.84;105655;1297;61473;-78
2022/11/25 12:30:22;;;;;;;63.50;22.30;;;;;;;1.69;92.51;100202.44;105862;1292;73852;-78
2022/11/25 12:33:40;;;;;;;65.60;21.50;;;;;;;1.72;92.44;100205.67;105676;1291;68868;-79
2022/11/25 12:36:33;;;;;;;73.40;25.00;;;;;;;1.69;92.17;100210.51;105713;1292;72740;-79
2022/11/25 12:39:37;;;;;;;72.90;25.60;;;;;;;1.68;92.25;100206.86;105703;1295;59876;-78
2022/11/25 12:42:27;;;;;;;75.20;25.50;;;;;;;1.69;92.29;100206.98;105737;1292;58669;-79
2022/11/25 12:45:24;;;;;;;73.20;28.10;;;;;;;1.72;92.21;100208.62;105726;1292;72739;-78
2022/11/25 12:48:12;;;;;;;74.80;27.50;;;;;;;1.75;92.27;100206.26;104929;1284;1002237;-78
2022/11/25 12:51:13;;;;;;;77.10;26.30;;;;;;;1.75;92.22;100209.40;105875;1292;72371;-79
2022/11/25 12:54:20;;;;;;;75.20;27.20;;;;;;;1.75;92.03;100208.70;105719;1292;57252;-79
2022/11/25 12:57:26;;;;;;;72.50;25.40;;;;;;;1.76;92.05;100214.58;105725;1294;58786;-78
2022/11/25 13:00:30;;;;;;;70.90;26.00;;;;;;;1.75;91.95;100214.31;105889;1294;71860;-80
2022/11/25 13:04:27;;;;;;;71.90;24.60;;;;;;;1.70;92.25;100216.02;105756;1291;67811;-77
2022/11/25 13:07:33;;;;;;;77.70;26.90;;;;;;;1.67;92.41;100212.45;105820;1292;73987;-78
2022/11/25 13:10:42;;;;;;;74.80;27.50;;;;;;;1.68;92.29;100212.44;105724;1291;58812;-79
2022/11/25 13:13:48;;;;;;;74.60;27.70;;;;;;;1.67;92.33;100212.30;105731;1295;58954;-79
2022/11/25 13:16:36;;;;;;;88.30;30.00;;;;;;;1.69;92.37;100218.70;105861;1278;73058;-77
2022/11/25 13:19:24;;;;;;;83.60;30.00;;;;;;;1.71;92.40;100221.95;105741;1291;68652;-78
2022/11/25 13:22:22;;;;;;;80.70;26.60;;;;;;;1.71;92.37;100220.22;105852;1290;72377;-78